Time;durP1;ratioP1;P1;durP2;ratioP2;P2;SDS_P1;SDS_P2;PMS_P1;PMS_P2;Temp;Humidity;BMP_temperature;BMP_pressure;BME280_temperature;BME280_humidity;BME280_pressure;Samples;Min_cycle;Max_cycle;Signal;HPM_P1;HPM_P2
2023/06/24 07:01:20;;;;;;;0.10;0.10;;;22.30;99.90;26.70;102421.00;;;;6214581;22;1469289;-64
2023/06/24 07:04:06;;;;;;;1.48;1.38;;;23.80;99.90;24.70;102373.00;;;;6278630;22;20252;-62
2023/06/24 07:06:34;;;;;;;1.33;1.10;;;22.60;99.90;25.90;102385.00;;;;6251489;22;20148;-63
2023/06/24 07:09:00;;;;;;;1.23;0.95;;;23.10;99.90;26.70;102377.00;;;;6251251;22;20149;-63
2023/06/24 07:11:34;;;;;;;2.10;1.35;;;23.80;99.90;29.80;102405.00;;;;6251544;22;20153;-63
2023/06/24 07:14:02;;;;;;;0.10;0.10;;;25.40;99.90;30.70;102406.00;;;;6277983;22;20504;-63
2023/06/24 07:16:31;;;;;;;0.55;0.50;;;26.20;99.90;33.40;102341.00;;;;6277712;22;20242;-63
2023/06/24 07:18:59;;;;;;;1.00;0.68;;;28.40;99.90;36.20;102353.00;;;;6251583;22;20141;-63
2023/06/24 07:21:31;;;;;;;0.88;0.60;;;30.80;99.90;33.50;102371.00;;;;6278279;22;20141;-63
2023/06/24 07:23:59;;;;;;;2.25;1.70;;;30.30;99.90;28.80;102435.00;;;;6278316;22;20138;-63
2023/06/24 07:26:33;;;;;;;0.65;0.65;;;27.30;99.90;30.80;102415.00;;;;6225657;22;20165;-63
2023/06/24 07:29:02;;;;;;;1.73;1.63;;;27.00;99.90;27.60;102454.00;;;;6278182;22;20145;-63
2023/06/24 07:31:37;;;;;;;0.77;0.52;;;25.80;99.90;28.00;102451.00;;;;6250324;22;20187;-63
2023/06/24 07:34:07;;;;;;;1.38;1.27;;;25.40;99.90;26.40;102467.00;;;;6252339;22;20140;-63
2023/06/24 07:36:41;;;;;;;0.10;0.10;;;24.70;99.90;27.90;102466.00;;;;6250952;22;20157;-63
2023/06/24 07:39:07;;;;;;;0.10;0.10;;;24.90;99.90;29.50;102456.00;;;;6251415;22;20137;-63
2023/06/24 07:41:36;;;;;;;0.25;0.25;;;25.40;99.90;29.90;102462.00;;;;6278066;22;20198;-63
2023/06/24 07:44:07;;;;;;;0.20;0.20;;;26.00;99.90;31.40;102433.00;;;;6278444;22;20233;-63
2023/06/24 07:46:35;;;;;;;2.05;1.42;;;27.10;99.90;30.60;102435.00;;;;6225856;22;20222;-63
2023/06/24 07:49:06;;;;;;;0.10;0.10;;;28.10;99.90;31.10;102419.00;;;;6278207;22;20149;-63
2023/06/24 07:51:37;;;;;;;0.30;0.30;;;27.80;99.90;29.00;102449.00;;;;6250677;22;20175;-63
2023/06/24 07:54:08;;;;;;;4.90;1.08;;;27.00;99.90;28.30;102457.00;;;;6278291;22;20461;-63
2023/06/24 07:56:36;;;;;;;0.55;0.55;;;26.50;99.90;26.70;102463.00;;;;6277953;22;20153;-63
2023/06/24 07:59:03;;;;;;;0.52;0.52;;;24.50;99.90;28.80;102463.00;;;;6250738;22;20161;-63
2023/06/24 08:01:28;;;;;;;1.27;1.27;;;25.20;99.90;32.50;102422.00;;;;6277871;22;20138;-63
2023/06/24 08:03:59;;;;;;;0.10;0.10;;;27.80;99.90;30.90;102432.00;;;;6225597;22;20164;-63
2023/06/24 08:06:33;;;;;;;0.08;0.08;;;27.30;99.90;31.80;102425.00;;;;6225879;22;20157;-63
2023/06/24 08:09:11;;;;;;;6.78;1.77;;;28.20;99.90;32.80;102408.00;;;;6251813;22;20136;-63
2023/06/24 08:11:43;;;;;;;0.98;0.93;;;29.60;99.90;27.60;102462.00;;;;6250312;22;20165;-63
2023/06/24 08:14:12;;;;;;;0.20;0.20;;;26.40;99.90;32.10;102409.00;;;;6251205;22;20223;-63
2023/06/24 08:16:44;;;;;;;1.17;1.13;;;27.40;99.90;31.70;102408.00;;;;6250777;22;20149;-63
2023/06/24 08:19:10;;;;;;;3.20;3.10;;;28.10;99.90;30.00;102437.00;;;;6251049;22;20157;-63
2023/06/24 08:21:41;;;;;;;0.22;0.20;;;27.10;99.90;32.30;102399.00;;;;6250605;22;20202;-63
2023/06/24 08:24:13;;;;;;;1.20;1.10;;;28.60;99.90;32.40;102394.00;;;;6250851;22;20237;-63
2023/06/24 08:26:39;;;;;;;2.40;1.10;;;28.80;99.90;32.70;102371.00;;;;6251385;22;20137;-63
2023/06/24 08:29:28;;;;;;;0.17;0.17;;;29.50;99.90;33.50;102375.00;;;;6224149;22;20161;-63
2023/06/24 08:31:59;;;;;;;0.13;0.13;;;29.30;99.90;32.20;102400.00;;;;6250706;22;20214;-63
2023/06/24 08:34:30;;;;;;;0.20;0.20;;;29.20;99.90;33.80;102373.00;;;;6278003;22;20149;-63
2023/06/24 08:37:07;;;;;;;0.10;0.10;;;29.70;99.90;34.90;102348.00;;;;6277242;22;20171;-63
2023/06/24 08:39:38;;;;;;;0.10;0.10;;;30.50;99.90;36.70;102337.00;;;;6277738;22;20239;-63
2023/06/24 08:42:07;;;;;;;1.42;0.95;;;32.00;99.90;34.90;102369.00;;;;6225538;22;20250;-63
2023/06/24 08:44:36;;;;;;;0.10;0.10;;;31.50;99.90;34.60;102377.00;;;;6250874;22;20146;-63
2023/06/24 08:47:07;;;;;;;0.32;0.28;;;30.70;99.90;35.50;102365.00;;;;6225681;22;20462;-63
2023/06/24 08:49:57;;;;;;;0.10;0.10;;;31.40;99.90;38.10;102334.00;;;;6250288;22;20137;-63
2023/06/24 08:52:32;;;;;;;0.13;0.13;;;32.90;99.90;36.30;102373.00;;;;6225989;22;20244;-63
2023/06/24 08:55:02;;;;;;;0.10;0.10;;;32.90;99.90;33.50;102390.00;;;;6250787;22;20170;-65
2023/06/24 08:57:38;;;;;;;0.10;0.10;;;30.80;99.90;32.90;102393.00;;;;6251139;22;20141;-63
2023/06/24 09:00:12;;;;;;;0.20;0.20;;;29.90;99.90;35.40;102372.00;;;;6250752;22;20527;-63
2023/06/24 09:02:48;;;;;;;0.20;0.20;;;31.10;99.90;36.20;102365.00;;;;6225376;22;20184;-63
2023/06/24 09:05:26;;;;;;;1.02;1.02;;;32.30;99.90;36.10;102371.00;;;;6277556;22;20624;-63
2023/06/24 09:07:55;;;;;;;0.20;0.20;;;32.00;99.90;36.20;102373.00;;;;6250026;22;20153;-64
2023/06/24 09:11:03;;;;;;;2.53;2.42;;;32.40;99.90;34.30;102378.00;;;;6277480;22;20157;-63
2023/06/24 09:13:37;;;;;;;0.43;0.43;;;31.40;99.90;32.20;102391.00;;;;6228945;22;20157;-63
2023/06/24 09:16:23;;;;;;;0.95;0.95;;;30.70;99.90;33.40;102389.00;;;;6249976;22;20137;-63
2023/06/24 09:19:00;;;;;;;0.17;0.17;;;30.00;99.90;35.20;102372.00;;;;6250169;22;20555;-63
2023/06/24 09:21:49;;;;;;;0.10;0.10;;;31.20;99.90;33.30;102384.00;;;;6250337;22;20247;-63
2023/06/24 09:24:33;;;;;;;0.32;0.32;;;30.50;99.90;33.90;102388.00;;;;6250289;22;20164;-63
2023/06/24 09:27:00;;;;;;;0.00;0.00;;;30.00;99.90;36.60;102363.00;;;;6276925;22;20145;-64
2023/06/24 09:29:28;;;;;;;0.45;0.45;;;31.70;99.90;34.00;102375.00;;;;6249987;22;20495;-63
2023/06/24 09:32:28;;;;;;;0.10;0.10;;;32.00;99.90;33.90;102371.00;;;;6250332;22;20145;-63
2023/06/24 09:35:06;;;;;;;0.35;0.35;;;31.00;99.90;35.20;102347.00;;;;6277226;22;20205;-63
2023/06/24 09:37:42;;;;;;;0.10;0.10;;;31.60;99.90;33.20;102375.00;;;;6276774;22;20137;-63
2023/06/24 09:40:13;;;;;;;0.10;0.10;;;31.10;99.90;32.90;102375.00;;;;6224776;22;20157;-63
2023/06/24 09:42:54;;;;;;;0.10;0.10;;;29.90;99.90;34.70;102369.00;;;;6277014;22;20193;-63
2023/06/24 09:45:44;;;;;;;0.28;0.28;;;30.40;99.90;37.10;102347.00;;;;6250234;22;20220;-63
2023/06/24 09:48:16;;;;;;;0.00;0.00;;;32.40;99.90;39.30;102337.00;;;;6249754;22;20202;-64
2023/06/24 09:50:47;;;;;;;0.80;0.63;;;34.20;99.90;37.20;102344.00;;;;6276984;22;20137;-64
2023/06/24 09:53:29;;;;;;;0.35;0.35;;;33.60;99.90;36.50;102336.00;;;;6224743;22;20159;-63
2023/06/24 09:56:14;;;;;;;0.55;0.30;;;33.00;99.90;36.70;102332.00;;;;6250564;22;20138;-63
2023/06/24 09:58:50;;;;;;;0.10;0.10;;;33.50;99.90;37.10;102333.00;;;;6223935;22;20164;-63
2023/06/24 10:01:43;;;;;;;0.10;0.10;;;33.00;99.90;36.20;102338.00;;;;6249837;22;20164;-63
2023/06/24 10:04:18;;;;;;;0.52;0.35;;;33.00;99.90;36.40;102328.00;;;;6203566;22;20185;-63
2023/06/24 10:07:04;;;;;;;0.75;0.57;;;33.10;99.90;33.90;102340.00;;;;6249570;22;20156;-63
2023/06/24 10:09:53;;;;;;;0.10;0.10;;;32.40;99.90;34.80;102350.00;;;;6276253;22;20167;-63
2023/06/24 10:12:21;;;;;;;0.30;0.30;;;30.70;99.90;31.80;102365.00;;;;6249029;22;20191;-63
2023/06/24 10:14:50;;;;;;;0.38;0.30;;;29.90;99.90;34.50;102349.00;;;;6249901;22;20523;-63
2023/06/24 10:17:16;;;;;;;0.10;0.10;;;30.70;99.90;32.30;102364.00;;;;6249252;22;20169;-63
2023/06/24 10:20:03;;;;;;;0.40;0.38;;;29.80;99.90;32.20;102370.00;;;;6276618;22;20500;-63
2023/06/24 10:33:30;;;;;;;0.45;0.45;;;28.60;99.90;32.30;102354.00;;;;5047069;27;1339449;-65
2023/06/24 10:36:00;;;;;;;1.42;0.90;;;29.00;99.90;31.30;102353.00;;;;5040749;28;20260;-62
2023/06/24 10:38:56;;;;;;;0.10;0.10;;;28.90;99.90;35.20;102332.00;;;;5069761;28;20178;-62
2023/06/24 10:41:27;;;;;;;0.63;0.63;;;30.50;99.90;34.20;102317.00;;;;5061510;28;20187;-63
2023/06/24 10:43:59;;;;;;;0.30;0.30;;;31.10;98.90;34.40;102322.00;;;;5052409;28;20190;-63
2023/06/24 10:46:29;;;;;;;0.52;0.52;;;31.40;99.90;34.20;102326.00;;;;5052315;28;20272;-63
2023/06/24 10:48:57;;;;;;;0.28;0.28;;;31.50;99.80;34.90;102314.00;;;;5049699;28;20288;-63
2023/06/24 10:51:31;;;;;;;0.10;0.10;;;31.30;99.60;35.00;102319.00;;;;5051795;28;20277;-63
2023/06/24 10:54:09;;;;;;;0.10;0.10;;;31.10;99.90;37.40;102300.00;;;;5058574;28;20213;-63
2023/06/24 10:56:40;;;;;;;1.08;0.52;;;32.80;99.80;34.20;102308.00;;;;5039787;28;20184;-63
2023/06/24 10:59:09;;;;;;;0.65;0.50;;;32.40;99.20;31.90;102330.00;;;;5050819;28;20190;-63
2023/06/24 11:01:54;;;;;;;0.38;0.38;;;30.50;99.80;34.10;102322.00;;;;5034889;28;20210;-63
2023/06/24 11:04:58;;;;;;;0.00;0.00;;;30.40;99.90;35.00;102316.00;;;;5055181;28;20264;-63
2023/06/24 11:07:34;;;;;;;0.10;0.10;;;31.20;99.90;36.00;102301.00;;;;5056643;28;20185;-63
2023/06/24 11:10:15;;;;;;;0.80;0.80;;;32.30;99.30;34.70;102306.00;;;;5044052;28;20174;-63
2023/06/24 11:12:52;;;;;;;0.10;0.10;;;32.40;97.30;34.80;102301.00;;;;5026186;28;20244;-63
2023/06/24 11:15:27;;;;;;;0.10;0.10;;;31.40;99.90;37.00;102280.00;;;;5057448;28;20589;-64
2023/06/24 11:18:01;;;;;;;0.40;0.40;;;32.80;99.90;34.40;102295.00;;;;5063555;28;20223;-64
2023/06/24 11:20:36;;;;;;;0.10;0.10;;;33.30;98.10;33.60;102303.00;;;;5042703;28;20189;-63
2023/06/24 11:23:15;;;;;;;1.38;1.15;;;31.20;99.90;34.40;102298.00;;;;5035397;28;20644;-63
2023/06/24 11:25:46;;;;;;;0.10;0.10;;;31.70;99.40;34.10;102300.00;;;;5067098;28;20200;-63
2023/06/24 11:28:26;;;;;;;0.25;0.25;;;31.20;99.20;36.70;102286.00;;;;5051616;28;20204;-64
2023/06/24 11:31:18;;;;;;;0.10;0.10;;;32.60;97.80;39.50;102249.00;;;;5051626;28;20196;-64
2023/06/24 11:34:13;;;;;;;0.10;0.10;;;34.80;96.50;39.80;102260.00;;;;5059381;28;20213;-64
2023/06/24 11:36:48;;;;;;;0.47;0.32;;;35.90;95.60;40.60;102294.00;;;;5050128;28;20256;-64
2023/06/24 11:39:28;;;;;;;0.57;0.30;;;36.80;94.40;40.80;102299.00;;;;5069332;28;20188;-64
2023/06/24 11:42:03;;;;;;;0.52;0.52;;;37.30;92.50;39.10;102328.00;;;;5051234;28;20268;-64
2023/06/24 11:44:43;;;;;;;0.95;0.95;;;37.20;90.40;34.90;102337.00;;;;5039511;28;20186;-63
2023/06/24 11:47:14;;;;;;;0.10;0.10;;;34.50;90.70;36.80;102343.00;;;;5055485;28;20181;-63
2023/06/24 11:49:58;;;;;;;0.57;0.57;;;33.50;92.40;40.00;102333.00;;;;5055910;28;20190;-64
2023/06/24 11:52:46;;;;;;;0.52;0.32;;;35.40;90.50;41.00;102330.00;;;;5038236;28;20247;-64
2023/06/24 11:55:24;;;;;;;0.65;0.65;;;36.60;90.70;38.30;102326.00;;;;5055516;28;20178;-64
2023/06/24 11:58:10;;;;;;;0.10;0.10;;;35.30;90.80;34.90;102345.00;;;;5029556;28;20224;-63
2023/06/24 12:00:59;;;;;;;0.13;0.13;;;33.10;90.20;34.70;102353.00;;;;5036834;28;20196;-65
2023/06/24 12:03:43;;;;;;;0.25;0.25;;;32.00;91.60;33.40;102362.00;;;;5037533;28;20190;-63
2023/06/24 12:06:13;;;;;;;1.02;1.02;;;31.00;93.30;33.90;102348.00;;;;5037401;28;20552;-63
2023/06/24 12:08:39;;;;;;;0.10;0.10;;;31.10;93.30;35.80;102343.00;;;;5037480;28;20236;-63
2023/06/24 12:11:11;;;;;;;0.65;0.65;;;31.60;93.70;34.70;102345.00;;;;5032333;28;20239;-63
2023/06/24 12:13:40;;;;;;;0.15;0.15;;;31.60;92.10;32.60;102324.00;;;;5031278;28;20195;-63
2023/06/24 12:16:14;;;;;;;0.10;0.10;;;30.50;93.10;32.70;102348.00;;;;5018216;28;20269;-63
2023/06/24 12:18:53;;;;;;;0.10;0.10;;;29.70;95.00;35.00;102333.00;;;;5054950;28;20198;-64
2023/06/24 12:21:27;;;;;;;1.42;1.40;;;30.60;94.50;34.90;102336.00;;;;5054841;28;20641;-63
2023/06/24 12:23:56;;;;;;;0.20;0.20;;;31.00;93.80;34.70;102331.00;;;;5055258;28;20178;-63
2023/06/24 12:26:27;;;;;;;0.30;0.30;;;30.80;94.90;35.30;102330.00;;;;5037393;28;20182;-63
2023/06/24 12:29:02;;;;;;;1.30;0.65;;;31.10;94.40;31.60;102352.00;;;;5054487;28;20182;-63
2023/06/24 12:31:28;;;;;;;0.68;0.68;;;29.80;94.60;31.90;102340.00;;;;5039468;28;20205;-64
2023/06/24 12:34:00;;;;;;;0.57;0.40;;;29.30;95.10;31.30;102337.00;;;;5038490;28;20183;-63
2023/06/24 12:36:28;;;;;;;0.65;0.65;;;28.70;94.60;31.30;102335.00;;;;5054821;28;20655;-63
2023/06/24 12:38:57;;;;;;;0.38;0.38;;;28.50;96.00;33.30;102333.00;;;;5040363;28;20750;-63
2023/06/24 12:41:31;;;;;;;0.10;0.10;;;29.10;95.70;32.00;102337.00;;;;5037518;28;20191;-63
2023/06/24 12:44:27;;;;;;;0.60;0.60;;;28.50;96.70;32.80;102331.00;;;;5037151;28;20181;-63
2023/06/24 12:46:53;;;;;;;1.45;0.75;;;28.80;96.70;32.90;102322.00;;;;5016916;28;20191;-63
2023/06/24 12:49:24;;;;;;;0.40;0.40;;;29.00;96.80;31.80;102323.00;;;;5054523;28;20232;-63
2023/06/24 12:51:58;;;;;;;0.10;0.10;;;29.00;95.70;33.30;102298.00;;;;5054428;28;20194;-63
2023/06/24 12:54:29;;;;;;;0.28;0.28;;;29.00;96.70;34.30;102305.00;;;;5053910;28;20563;-63
2023/06/24 12:57:04;;;;;;;0.22;0.22;;;29.70;96.30;34.50;102306.00;;;;5019263;28;20183;-63
2023/06/24 12:59:33;;;;;;;0.63;0.47;;;30.10;95.90;33.50;102303.00;;;;5035244;28;20560;-63
2023/06/24 13:02:04;;;;;;;0.60;0.60;;;29.90;95.40;32.70;102319.00;;;;5053914;28;20190;-63
2023/06/24 13:04:33;;;;;;;0.30;0.30;;;29.80;96.20;32.20;102324.00;;;;5054541;28;20189;-63
2023/06/24 13:07:26;;;;;;;0.10;0.10;;;29.00;97.50;34.20;102299.00;;;;5042600;28;20174;-63
2023/06/24 13:09:59;;;;;;;0.10;0.10;;;29.50;97.40;34.60;102286.00;;;;5035504;28;20194;-63
2023/06/24 13:12:37;;;;;;;0.13;0.13;;;30.00;97.20;35.10;102291.00;;;;5036590;28;20202;-63
2023/06/24 13:15:27;;;;;;;0.43;0.43;;;30.40;97.10;35.20;102281.00;;;;5054259;28;20231;-63
2023/06/24 13:18:15;;;;;;;1.08;1.08;;;30.70;96.80;35.20;102288.00;;;;5035885;28;20239;-63
2023/06/24 13:20:44;;;;;;;0.10;0.10;;;30.90;95.90;35.10;102286.00;;;;5035762;28;20174;-64
2023/06/24 13:23:13;;;;;;;0.10;0.10;;;30.90;96.00;34.20;102281.00;;;;5035808;28;20530;-63
2023/06/24 13:25:59;;;;;;;1.30;1.27;;;30.50;96.10;31.90;102296.00;;;;5038250;28;20186;-63
2023/06/24 13:28:54;;;;;;;0.63;0.40;;;29.60;96.40;33.10;102291.00;;;;5053288;28;20209;-63
2023/06/24 13:31:28;;;;;;;0.20;0.20;;;29.10;97.10;33.20;102294.00;;;;5036024;28;20216;-63
2023/06/24 13:34:08;;;;;;;1.77;1.20;;;29.30;96.20;32.10;102291.00;;;;5035600;28;20218;-63
2023/06/24 13:36:39;;;;;;;2.30;2.17;;;29.20;94.70;33.50;102275.00;;;;5019290;28;20277;-63
2023/06/24 13:39:12;;;;;;;0.10;0.10;;;29.30;95.40;34.40;102274.00;;;;5026652;28;20189;-63
2023/06/24 13:41:46;;;;;;;0.10;0.10;;;29.90;94.90;32.80;102260.00;;;;5050598;28;20189;-63
2023/06/24 13:44:34;;;;;;;0.63;0.60;;;29.40;93.00;34.50;102267.00;;;;5019435;28;20185;-63
2023/06/24 13:47:05;;;;;;;0.20;0.20;;;30.00;93.40;34.10;102261.00;;;;5004560;28;20261;-63
2023/06/24 13:49:31;;;;;;;0.10;0.10;;;30.30;92.60;34.80;102261.00;;;;5048864;28;20708;-63
2023/06/24 13:52:00;;;;;;;0.50;0.50;;;30.40;92.30;35.10;102257.00;;;;5026064;28;20203;-63
2023/06/24 13:54:35;;;;;;;0.20;0.20;;;30.70;92.00;35.40;102245.00;;;;5018596;28;20652;-63
2023/06/24 13:57:10;;;;;;;0.10;0.10;;;30.80;92.40;34.80;102255.00;;;;5018890;28;20201;-63
2023/06/24 13:59:56;;;;;;;0.90;0.57;;;30.70;92.90;34.20;102251.00;;;;5053105;28;20182;-63
2023/06/24 14:02:28;;;;;;;0.10;0.10;;;30.70;93.00;34.80;102244.00;;;;5035027;28;20194;-63
2023/06/24 14:04:54;;;;;;;0.15;0.15;;;30.50;93.40;35.00;102233.00;;;;5053276;28;20218;-63
2023/06/24 14:07:24;;;;;;;0.10;0.10;;;30.60;93.80;33.30;102256.00;;;;5048311;28;20218;-63
2023/06/24 14:09:51;;;;;;;0.10;0.10;;;30.20;93.20;34.30;102246.00;;;;5027034;28;20182;-63
2023/06/24 14:12:25;;;;;;;0.28;0.28;;;30.30;93.80;33.50;102255.00;;;;5052987;28;20197;-63
2023/06/24 14:14:59;;;;;;;0.30;0.30;;;29.80;93.90;33.70;102255.00;;;;5039664;28;20202;-63
2023/06/24 14:17:28;;;;;;;0.65;0.65;;;29.90;93.10;32.60;102248.00;;;;5027618;28;20209;-63
2023/06/24 14:20:03;;;;;;;0.85;0.85;;;29.30;93.20;32.70;102255.00;;;;5014788;28;20340;-63
2023/06/24 14:22:37;;;;;;;0.10;0.10;;;29.30;93.80;33.70;102243.00;;;;5019123;28;20213;-63
2023/06/24 14:25:06;;;;;;;0.10;0.10;;;29.50;93.40;33.80;102235.00;;;;5018328;28;20185;-63
2023/06/24 14:27:32;;;;;;;1.33;0.90;;;29.80;94.00;32.60;102236.00;;;;5052747;28;20695;-63
2023/06/24 14:30:03;;;;;;;0.10;0.10;;;29.60;93.80;32.70;102242.00;;;;5052678;28;20281;-63
2023/06/24 14:32:34;;;;;;;0.10;0.10;;;29.20;94.30;33.70;102233.00;;;;5034667;28;20595;-63
2023/06/24 14:35:05;;;;;;;0.10;0.10;;;29.50;94.40;34.70;102232.00;;;;5035025;28;20182;-63
2023/06/24 14:37:36;;;;;;;1.20;1.10;;;30.00;94.10;33.50;102233.00;;;;5017800;28;20202;-63
2023/06/24 14:40:03;;;;;;;1.00;0.75;;;30.00;93.90;31.50;102251.00;;;;5034670;28;20181;-63
2023/06/24 14:42:29;;;;;;;0.55;0.30;;;29.10;94.20;31.90;102240.00;;;;5053120;28;20182;-63
2023/06/24 14:45:01;;;;;;;0.43;0.43;;;28.70;94.20;33.20;102238.00;;;;5034588;28;20273;-63
2023/06/24 14:47:31;;;;;;;0.10;0.10;;;29.10;94.50;32.50;102241.00;;;;5052627;28;20528;-63
2023/06/24 14:50:03;;;;;;;0.10;0.10;;;28.90;95.20;33.40;102234.00;;;;5018514;28;20174;-63
2023/06/24 14:52:29;;;;;;;0.10;0.10;;;29.10;95.70;34.30;102232.00;;;;5042683;28;20194;-63
2023/06/24 14:54:59;;;;;;;0.30;0.30;;;29.60;95.30;34.50;102208.00;;;;5052384;28;20231;-63
2023/06/24 14:57:54;;;;;;;0.73;0.73;;;29.90;94.70;33.10;102214.00;;;;5034493;28;20189;-63
2023/06/24 15:00:22;;;;;;;1.58;1.08;;;29.70;94.90;33.40;102218.00;;;;5037128;28;20240;-63
2023/06/24 15:02:48;;;;;;;0.10;0.10;;;29.30;94.90;33.30;102215.00;;;;5052373;28;20274;-62
2023/06/24 15:05:19;;;;;;;0.10;0.10;;;29.30;94.50;34.30;102201.00;;;;5052369;28;20273;-63
2023/06/24 15:07:48;;;;;;;0.10;0.10;;;29.70;94.40;34.10;102197.00;;;;5052145;28;20186;-63
2023/06/24 15:10:19;;;;;;;0.10;0.10;;;29.80;94.60;32.90;102206.00;;;;5044085;28;20241;-63
2023/06/24 15:12:48;;;;;;;0.55;0.55;;;29.50;94.40;34.20;102187.00;;;;5028073;28;20284;-63
2023/06/24 15:15:14;;;;;;;0.10;0.10;;;29.80;94.40;34.80;102194.00;;;;5036529;28;20190;-63
2023/06/24 15:17:45;;;;;;;0.10;0.10;;;30.20;94.60;34.40;102197.00;;;;5037966;28;20190;-63
2023/06/24 15:20:12;;;;;;;0.10;0.10;;;30.40;93.60;33.80;102200.00;;;;5052897;28;20667;-63
2023/06/24 15:23:00;;;;;;;0.20;0.20;;;30.00;93.30;33.70;102189.00;;;;5020881;28;20178;-63
2023/06/24 15:25:32;;;;;;;0.10;0.10;;;29.60;93.60;34.20;102188.00;;;;5035809;28;20235;-63
2023/06/24 15:27:58;;;;;;;0.45;0.45;;;29.80;93.90;33.60;102180.00;;;;5047082;28;20179;-63
2023/06/24 15:30:34;;;;;;;0.30;0.30;;;29.70;94.30;34.50;102176.00;;;;5052196;28;20312;-63
2023/06/24 15:33:09;;;;;;;1.48;1.20;;;30.00;94.20;33.90;102181.00;;;;5047394;28;20209;-63
2023/06/24 15:35:37;;;;;;;0.10;0.10;;;30.10;93.80;34.60;102176.00;;;;5037790;28;20654;-63
2023/06/24 15:38:08;;;;;;;0.10;0.10;;;30.30;94.30;33.90;102173.00;;;;5038099;28;20193;-63
2023/06/24 15:40:40;;;;;;;0.10;0.10;;;30.00;94.40;34.50;102175.00;;;;5050390;28;20562;-63
2023/06/24 15:43:14;;;;;;;0.47;0.47;;;30.20;94.40;33.00;102180.00;;;;5021913;28;20573;-63
2023/06/24 15:45:40;;;;;;;0.98;0.90;;;29.80;94.10;33.10;102179.00;;;;5038216;28;20285;-63
2023/06/24 15:48:12;;;;;;;0.10;0.10;;;29.40;94.50;33.40;102172.00;;;;5038020;28;20194;-63
2023/06/24 15:50:39;;;;;;;0.10;0.10;;;29.40;94.60;34.10;102159.00;;;;5037465;28;20185;-63
2023/06/24 15:53:11;;;;;;;4.45;0.80;;;29.80;95.30;34.00;102173.00;;;;5053584;28;20201;-63
2023/06/24 15:55:40;;;;;;;1.98;1.88;;;29.90;94.40;33.30;102173.00;;;;5055318;28;20170;-63
2023/06/24 15:58:09;;;;;;;0.10;0.10;;;29.50;94.70;34.00;102173.00;;;;5055529;28;20248;-63
2023/06/24 16:00:38;;;;;;;0.10;0.10;;;29.90;94.20;34.40;102161.00;;;;5021405;28;20254;-64
2023/06/24 16:03:09;;;;;;;0.40;0.40;;;29.90;93.90;34.70;102163.00;;;;5037375;28;20269;-63
2023/06/24 16:05:38;;;;;;;0.10;0.10;;;30.20;94.30;33.60;102156.00;;;;5037743;28;20324;-63
2023/06/24 16:08:09;;;;;;;0.80;0.80;;;29.90;94.10;33.20;102160.00;;;;5045553;28;20194;-63
2023/06/24 16:10:38;;;;;;;3.38;2.00;;;29.60;97.40;33.30;102171.00;;;;5034458;28;20186;-63
2023/06/24 16:13:13;;;;;;;0.43;0.43;;;29.50;99.90;33.60;102174.00;;;;5055331;28;20277;-63
2023/06/24 16:15:39;;;;;;;0.17;0.15;;;29.60;99.90;33.20;102182.00;;;;5021262;28;20213;-63
2023/06/24 16:18:13;;;;;;;3.28;2.28;;;29.50;99.90;33.10;102184.00;;;;5054427;28;20198;-63
2023/06/24 16:20:42;;;;;;;0.10;0.10;;;29.40;99.90;33.60;102168.00;;;;5033871;28;20523;-63
2023/06/24 16:23:13;;;;;;;1.95;0.73;;;29.40;99.90;33.90;102176.00;;;;5045089;28;20202;-63
2023/06/24 16:25:47;;;;;;;0.20;0.20;;;29.40;99.90;33.30;102180.00;;;;5042016;28;20233;-63
2023/06/24 16:28:15;;;;;;;1.10;0.85;;;29.20;99.90;33.20;102190.00;;;;5045305;28;20213;-63
2023/06/24 16:30:47;;;;;;;1.45;0.57;;;29.20;99.90;32.80;102180.00;;;;5028033;28;20182;-63
2023/06/24 16:33:22;;;;;;;4.10;2.67;;;29.00;99.90;30.70;102197.00;;;;5040732;28;20632;-63
2023/06/24 16:35:58;;;;;;;0.20;0.20;;;28.40;99.90;30.70;102206.00;;;;5029949;28;20201;-63
2023/06/24 16:38:27;;;;;;;0.35;0.35;;;27.80;99.90;31.40;102200.00;;;;5038482;28;20508;-63
2023/06/24 16:41:00;;;;;;;1.35;0.82;;;27.90;99.90;31.10;102215.00;;;;5050686;28;20178;-63
2023/06/24 16:43:31;;;;;;;0.17;0.17;;;27.90;99.90;31.80;102210.00;;;;5034315;28;20605;-63
2023/06/24 16:46:05;;;;;;;3.33;1.63;;;28.00;99.90;30.40;102224.00;;;;5036813;28;20261;-63
2023/06/24 16:48:40;;;;;;;0.63;0.63;;;27.70;99.90;31.20;102217.00;;;;5054445;28;20206;-63
2023/06/24 16:51:06;;;;;;;1.98;1.67;;;27.70;99.90;31.10;102218.00;;;;5052559;28;20170;-63
2023/06/24 16:53:38;;;;;;;2.45;0.52;;;27.90;99.90;31.70;102210.00;;;;5049976;28;20300;-63
2023/06/24 16:56:07;;;;;;;3.92;3.63;;;27.90;99.90;31.40;102205.00;;;;5054814;28;20540;-63
2023/06/24 16:58:38;;;;;;;0.77;0.77;;;28.10;99.90;31.20;102216.00;;;;5030363;28;20331;-63
2023/06/24 17:01:06;;;;;;;2.60;2.38;;;27.90;99.90;29.80;102216.00;;;;5054288;28;20265;-63
2023/06/24 17:03:37;;;;;;;2.22;1.15;;;27.40;99.90;29.90;102223.00;;;;5036013;28;20217;-63
2023/06/24 17:06:05;;;;;;;0.52;0.52;;;27.10;99.90;30.30;102202.00;;;;5020506;28;20193;-63
2023/06/24 17:08:36;;;;;;;3.95;1.23;;;27.00;99.90;30.60;102194.00;;;;5054202;28;20280;-62
2023/06/24 17:11:05;;;;;;;0.80;0.80;;;27.20;99.90;30.60;102189.00;;;;5047803;28;20213;-64
2023/06/24 17:13:33;;;;;;;0.20;0.20;;;27.10;99.90;30.20;102185.00;;;;5036376;28;20241;-64
2023/06/24 17:16:02;;;;;;;2.72;2.38;;;27.20;99.90;30.50;102181.00;;;;5053957;28;20625;-64
2023/06/24 17:18:33;;;;;;;0.20;0.20;;;27.20;99.90;30.90;102178.00;;;;5027645;28;20179;-64
2023/06/24 17:21:07;;;;;;;0.90;0.77;;;27.20;99.90;30.60;102170.00;;;;5014312;28;20189;-64
2023/06/24 17:23:36;;;;;;;0.32;0.32;;;27.20;99.90;30.60;102169.00;;;;5041566;28;20182;-64
2023/06/24 17:26:02;;;;;;;3.90;1.30;;;27.20;99.90;30.10;102173.00;;;;5042219;28;20240;-64
2023/06/24 17:28:31;;;;;;;0.10;0.10;;;27.10;99.90;31.70;102151.00;;;;5028905;28;20178;-64
2023/06/24 17:31:02;;;;;;;1.10;0.20;;;27.40;99.90;30.50;102158.00;;;;5045176;28;20629;-64
2023/06/24 17:33:30;;;;;;;0.10;0.10;;;27.20;99.90;31.00;102145.00;;;;5034133;28;20222;-64
2023/06/24 17:35:56;;;;;;;0.28;0.28;;;27.30;99.90;31.40;102136.00;;;;5054230;28;20575;-64
2023/06/24 17:38:27;;;;;;;0.20;0.20;;;27.40;99.90;31.90;102133.00;;;;5035064;28;20197;-64
2023/06/24 17:40:56;;;;;;;0.63;0.63;;;27.60;99.90;31.40;102135.00;;;;5053055;28;20185;-64
2023/06/24 17:43:27;;;;;;;1.23;1.23;;;27.70;99.90;30.50;102132.00;;;;5036232;28;20182;-64
2023/06/24 17:45:58;;;;;;;0.90;0.90;;;27.40;99.90;30.40;102135.00;;;;5046528;28;20222;-64
2023/06/24 17:48:27;;;;;;;3.20;2.90;;;27.20;99.90;30.00;102129.00;;;;5053405;28;20244;-64
2023/06/24 17:50:55;;;;;;;0.55;0.43;;;26.90;99.90;31.20;102137.00;;;;5053346;28;20174;-64
2023/06/24 17:53:24;;;;;;;0.40;0.40;;;27.20;99.90;30.10;102137.00;;;;5053508;28;20198;-64
2023/06/24 17:55:49;;;;;;;1.30;1.30;;;27.00;99.90;30.10;102129.00;;;;5035442;28;20663;-64
2023/06/24 17:58:19;;;;;;;0.65;0.65;;;26.80;99.90;30.90;102129.00;;;;5030629;28;20182;-64
2023/06/24 18:00:48;;;;;;;1.20;1.10;;;27.00;99.90;30.60;102116.00;;;;5052956;28;20297;-64
2023/06/24 18:03:16;;;;;;;2.80;1.65;;;27.00;99.90;30.10;102115.00;;;;5053082;28;20186;-64
2023/06/24 18:05:48;;;;;;;0.47;0.43;;;26.80;99.90;31.00;102112.00;;;;5035471;28;20520;-64
2023/06/24 18:08:13;;;;;;;3.35;3.05;;;27.00;99.90;30.00;102112.00;;;;5052782;28;20805;-64
2023/06/24 18:10:45;;;;;;;0.20;0.20;;;26.80;99.90;29.90;102115.00;;;;5053393;28;20667;-64
2023/06/24 18:13:13;;;;;;;2.20;1.75;;;26.60;99.90;29.70;102107.00;;;;5035646;28;20229;-64
2023/06/24 18:15:59;;;;;;;0.60;0.60;;;26.40;99.90;29.70;102107.00;;;;5052738;28;20178;-64
2023/06/24 18:18:27;;;;;;;0.25;0.25;;;26.30;99.90;30.00;102098.00;;;;5039640;28;20275;-64
2023/06/24 18:20:53;;;;;;;3.05;1.50;;;26.40;99.90;30.00;102092.00;;;;5023136;28;20220;-64
2023/06/24 18:23:25;;;;;;;1.25;1.13;;;26.40;99.90;28.80;102089.00;;;;5035293;28;20280;-64
2023/06/24 18:25:56;;;;;;;0.17;0.17;;;26.20;99.90;29.40;102051.00;;;;5035133;28;20174;-64